Time;durP1;ratioP1;P1;durP2;ratioP2;P2;SDS_P1;SDS_P2;PMS_P1;PMS_P2;Temp;Humidity;BMP_temperature;BMP_pressure;BME280_temperature;BME280_humidity;BME280_pressure;Samples;Min_cycle;Max_cycle;Signal;HPM_P1;HPM_P2
2022/04/09 00:01:05;;;;;;;10.20;6.70;;;;;;;6.49;86.08;96244.02;106198;1277;22550;-71
2022/04/09 00:03:31;;;;;;;12.10;7.70;;;;;;;6.53;86.10;96240.77;106327;1277;22553;-71
2022/04/09 00:05:57;;;;;;;13.70;8.80;;;;;;;6.55;86.06;96249.15;105883;1277;137645;-71
2022/04/09 00:08:24;;;;;;;14.00;9.60;;;;;;;6.58;85.97;96249.67;105968;1277;22786;-71
2022/04/09 00:10:50;;;;;;;10.60;7.90;;;;;;;6.58;85.59;96242.21;105922;1277;139138;-71
2022/04/09 00:13:17;;;;;;;13.60;8.30;;;;;;;6.59;85.91;96253.94;105989;1276;24382;-71
2022/04/09 00:15:45;;;;;;;14.40;9.60;;;;;;;6.57;85.53;96256.61;105900;1277;24287;-71
2022/04/09 00:18:15;;;;;;;12.70;9.20;;;;;;;6.53;85.53;96249.05;105934;1277;137053;-71
2022/04/09 00:20:42;;;;;;;15.40;10.50;;;;;;;6.48;85.78;96245.22;106036;1276;24294;-71
2022/04/09 00:23:13;;;;;;;15.40;9.70;;;;;;;6.47;85.85;96243.60;105823;1277;138114;-72
2022/04/09 00:25:54;;;;;;;14.50;10.00;;;;;;;6.42;85.66;96244.73;106049;1277;22579;-71
2022/04/09 00:28:24;;;;;;;14.00;9.30;;;;;;;6.37;85.86;96235.44;105897;1277;139116;-71
2022/04/09 00:30:50;;;;;;;15.20;10.80;;;;;;;6.34;85.94;96224.42;105997;1277;22557;-71
2022/04/09 00:33:16;;;;;;;13.70;9.80;;;;;;;6.30;86.20;96230.92;106060;1276;22674;-71
2022/04/09 00:35:43;;;;;;;15.70;11.40;;;;;;;6.25;86.37;96228.11;105879;1278;137975;-70
2022/04/09 00:38:10;;;;;;;14.00;10.40;;;;;;;6.28;86.79;96228.43;106049;1276;22836;-72
2022/04/09 00:40:38;;;;;;;14.20;10.30;;;;;;;6.34;86.63;96225.35;105900;1275;137887;-71
2022/04/09 00:43:05;;;;;;;14.20;10.50;;;;;;;6.40;86.95;96224.52;105856;1278;23954;-71
2022/04/09 00:45:31;;;;;;;16.40;10.20;;;;;;;6.45;86.56;96230.40;105935;1280;25410;-71
2022/04/09 00:47:59;;;;;;;13.70;9.70;;;;;;;6.45;86.49;96232.13;105822;1277;137655;-71
2022/04/09 00:50:25;;;;;;;14.50;10.10;;;;;;;6.44;86.27;96235.97;106009;1277;22563;-72
2022/04/09 00:52:57;;;;;;;14.50;8.90;;;;;;;6.41;86.17;96247.22;105849;1277;138736;-72
2022/04/09 00:58:17;;;;;;;13.40;9.80;;;;;;;6.34;86.40;96237.08;105942;1276;137763;-72
2022/04/09 01:00:44;;;;;;;13.20;9.40;;;;;;;6.37;86.36;96230.20;105977;1276;22720;-70
2022/04/09 01:03:19;;;;;;;16.50;10.10;;;;;;;6.37;86.37;96225.12;105954;1277;25286;-71
2022/04/09 01:05:48;;;;;;;14.30;9.50;;;;;;;6.38;86.27;96220.68;105968;1277;139163;-71
2022/04/09 01:08:15;;;;;;;14.90;8.90;;;;;;;6.41;86.43;96219.27;106056;1277;25359;-71
2022/04/09 01:10:46;;;;;;;13.00;8.40;;;;;;;6.45;86.58;96214.13;105709;1277;138911;-71
2022/04/09 01:13:13;;;;;;;13.20;8.40;;;;;;;6.48;86.59;96206.45;105943;1277;25501;-71
2022/04/09 01:15:40;;;;;;;13.30;9.30;;;;;;;6.51;86.43;96205.24;105952;1277;25275;-71
2022/04/09 01:18:08;;;;;;;14.10;9.90;;;;;;;6.54;86.64;96197.17;105927;1276;137810;-70
2022/04/09 01:20:35;;;;;;;12.90;8.20;;;;;;;6.55;86.24;96191.93;106061;1276;22607;-71
2022/04/09 01:23:01;;;;;;;12.50;7.90;;;;;;;6.57;86.49;96197.66;105925;1277;137282;-71
2022/04/09 01:25:28;;;;;;;11.90;8.40;;;;;;;6.56;86.08;96199.70;105875;1277;22547;-70
2022/04/09 01:27:59;;;;;;;13.50;8.90;;;;;;;6.54;86.07;96193.56;105885;1277;137590;-73
2022/04/09 01:30:26;;;;;;;13.60;8.70;;;;;;;6.50;86.01;96188.86;105941;1277;22566;-71
2022/04/09 01:32:53;;;;;;;13.50;8.70;;;;;;;6.50;85.99;96187.73;105948;1277;25410;-71
2022/04/09 01:35:20;;;;;;;11.00;7.70;;;;;;;6.52;86.50;96184.86;106000;1277;138358;-70
2022/04/09 01:37:46;;;;;;;10.10;8.00;;;;;;;6.55;86.44;96193.29;106005;1277;22636;-70
2022/04/09 01:40:13;;;;;;;13.00;8.80;;;;;;;6.55;86.17;96198.96;105865;1277;137526;-70
2022/04/09 01:42:44;;;;;;;11.00;7.80;;;;;;;6.51;85.93;96191.02;105948;1278;22554;-70
2022/04/09 01:45:10;;;;;;;14.10;8.30;;;;;;;6.49;86.00;96187.02;105934;1277;22639;-72
2022/04/09 01:47:42;;;;;;;10.30;7.40;;;;;;;6.48;86.26;96192.77;105829;1277;138168;-72
2022/04/09 01:50:10;;;;;;;15.30;7.10;;;;;;;6.48;85.98;96199.80;105824;1277;22544;-71
2022/04/09 01:52:37;;;;;;;9.60;6.80;;;;;;;6.47;86.29;96199.79;105819;1277;137369;-71
2022/04/09 01:55:05;;;;;;;13.20;7.70;;;;;;;6.49;86.21;96199.52;106014;1277;25387;-71
2022/04/09 01:57:36;;;;;;;12.20;7.50;;;;;;;6.50;86.12;96208.33;106188;1277;22562;-71
2022/04/09 02:00:20;;;;;;;9.70;7.40;;;;;;;6.54;86.58;96219.02;105876;1277;138520;-71
2022/04/09 02:02:48;;;;;;;10.50;7.40;;;;;;;6.60;86.22;96215.60;106027;1277;24275;-71
2022/04/09 02:05:15;;;;;;;12.40;7.60;;;;;;;6.60;86.06;96211.98;106092;1277;137404;-70
2022/04/09 02:07:43;;;;;;;11.90;8.30;;;;;;;6.59;86.00;96214.96;106016;1277;23924;-71
2022/04/09 02:10:11;;;;;;;14.30;8.30;;;;;;;6.59;86.07;96215.44;106034;1277;138047;-71
2022/04/09 02:12:40;;;;;;;13.70;9.40;;;;;;;6.57;85.93;96230.64;105903;1277;25387;-71
2022/04/09 02:15:09;;;;;;;10.70;8.30;;;;;;;6.55;85.83;96238.17;106161;1277;25339;-70
2022/04/09 02:17:40;;;;;;;11.90;8.30;;;;;;;6.55;85.96;96230.38;105821;1277;138004;-70
2022/04/09 02:20:09;;;;;;;13.40;8.60;;;;;;;6.56;86.12;96222.48;106115;1277;25350;-70
2022/04/09 02:22:36;;;;;;;12.00;9.80;;;;;;;6.54;86.15;96223.73;105971;1277;137866;-71
2022/04/09 02:25:08;;;;;;;13.50;9.90;;;;;;;6.55;86.58;96223.67;105956;1277;24386;-71
2022/04/09 02:27:35;;;;;;;14.30;9.90;;;;;;;6.56;86.15;96202.63;106115;1277;22545;-71
2022/04/09 02:30:06;;;;;;;12.50;8.90;;;;;;;6.53;86.15;96199.61;105830;1277;137671;-70
2022/04/09 02:33:01;;;;;;;13.40;10.20;;;;;;;6.50;86.06;96191.78;105965;1277;22541;-71
2022/04/09 02:35:46;;;;;;;16.40;10.50;;;;;;;6.47;86.33;96189.85;105838;1277;137614;-71
2022/04/09 02:38:13;;;;;;;13.70;10.30;;;;;;;6.45;86.40;96192.34;105972;1277;22589;-71
2022/04/09 02:40:40;;;;;;;14.10;10.30;;;;;;;6.48;86.82;96194.44;105816;1277;138483;-71
2022/04/09 02:43:07;;;;;;;16.60;8.90;;;;;;;6.50;86.97;96189.83;105963;1278;22708;-71
2022/04/09 02:45:34;;;;;;;14.80;9.10;;;;;;;6.52;86.66;96180.91;105858;1277;22586;-71
2022/04/09 02:48:04;;;;;;;11.90;9.00;;;;;;;6.51;86.84;96171.98;105861;1277;137378;-71
2022/04/09 02:50:32;;;;;;;13.20;9.30;;;;;;;6.51;86.93;96169.55;105921;1277;22541;-71
2022/04/09 02:52:59;;;;;;;11.80;9.10;;;;;;;6.53;86.87;96171.55;105762;1277;138132;-73
2022/04/09 02:55:26;;;;;;;11.40;9.00;;;;;;;6.55;86.89;96154.13;105870;1278;23458;-71
2022/04/09 02:57:53;;;;;;;14.50;8.60;;;;;;;6.57;86.69;96138.31;106057;1277;24115;-71
2022/04/09 03:00:23;;;;;;;10.80;8.10;;;;;;;6.56;86.67;96119.57;105832;1277;137107;-71
2022/04/09 03:02:49;;;;;;;13.40;8.90;;;;;;;6.56;86.76;96121.35;105870;1277;25503;-71
2022/04/09 03:05:26;;;;;;;14.70;9.10;;;;;;;6.54;86.64;96106.71;105797;1277;138388;-71
2022/04/09 03:07:52;;;;;;;11.80;7.70;;;;;;;6.53;86.58;96099.13;105956;1277;25486;-71
2022/04/09 03:10:20;;;;;;;12.30;7.40;;;;;;;6.51;86.57;96104.87;105922;1277;137856;-71
2022/04/09 03:12:48;;;;;;;11.50;8.60;;;;;;;6.48;86.47;96126.26;106051;1277;22596;-71
2022/04/09 03:15:16;;;;;;;12.50;8.70;;;;;;;6.45;86.72;96116.95;105999;1277;24454;-71
2022/04/09 03:17:44;;;;;;;12.20;8.80;;;;;;;6.43;86.91;96125.02;105599;1279;138627;-71
2022/04/09 03:20:11;;;;;;;12.10;7.90;;;;;;;6.40;86.85;96117.52;106028;1277;22538;-71
2022/04/09 03:22:47;;;;;;;10.20;7.60;;;;;;;6.37;86.76;96109.80;105771;1276;138111;-71
2022/04/09 03:25:17;;;;;;;10.50;7.60;;;;;;;6.35;87.11;96103.05;106020;1276;22563;-71
2022/04/09 03:27:46;;;;;;;11.30;7.30;;;;;;;6.34;87.44;96095.77;105932;1276;25426;-71
2022/04/09 03:30:13;;;;;;;12.80;8.00;;;;;;;6.34;87.45;96083.05;105740;1278;139198;-71
2022/04/09 03:32:41;;;;;;;10.80;7.80;;;;;;;6.31;87.39;96071.11;106051;1278;24224;-71
2022/04/09 03:35:10;;;;;;;8.60;6.60;;;;;;;6.28;87.56;96067.29;105913;1276;138039;-71
2022/04/09 03:37:38;;;;;;;10.40;7.00;;;;;;;6.27;87.49;96071.30;106008;1276;25340;-71
2022/04/09 03:40:07;;;;;;;11.90;8.50;;;;;;;6.24;87.60;96074.70;106017;1276;137659;-71
2022/04/09 03:42:33;;;;;;;13.00;8.70;;;;;;;6.24;87.82;96070.05;105912;1274;22605;-71
2022/04/09 03:45:00;;;;;;;17.50;9.80;;;;;;;6.23;87.75;96072.02;105939;1277;22645;-71
2022/04/09 03:47:27;;;;;;;12.80;8.50;;;;;;;6.22;87.77;96069.21;105786;1277;137991;-72
2022/04/09 03:49:54;;;;;;;12.70;8.60;;;;;;;6.21;87.82;96073.80;105980;1277;23402;-71
2022/04/09 03:52:35;;;;;;;19.20;10.80;;;;;;;6.19;88.06;96070.08;105862;1277;137441;-71
2022/04/09 03:55:03;;;;;;;20.50;11.80;;;;;;;6.20;88.18;96055.54;106014;1277;25395;-71
2022/04/09 03:57:30;;;;;;;22.20;12.70;;;;;;;6.21;88.31;96052.50;105970;1277;22577;-71
2022/04/09 03:59:57;;;;;;;21.50;12.80;;;;;;;6.22;88.40;96048.02;105796;1277;138214;-70
2022/04/09 04:02:38;;;;;;;22.40;13.60;;;;;;;6.23;88.26;96054.07;105943;1277;22603;-71
2022/04/09 04:05:06;;;;;;;27.90;15.60;;;;;;;6.25;88.26;96056.27;106038;1277;137606;-71
2022/04/09 04:07:34;;;;;;;27.30;16.00;;;;;;;6.23;88.38;96061.02;106110;1277;22691;-71
2022/04/09 04:10:10;;;;;;;27.70;16.30;;;;;;;6.22;88.40;96064.07;105823;1277;139063;-71
2022/04/09 04:12:38;;;;;;;29.30;17.20;;;;;;;6.22;88.46;96061.70;105885;1277;24428;-71
2022/04/09 04:15:07;;;;;;;23.60;15.00;;;;;;;6.25;88.81;96060.27;106039;1277;22559;-71
2022/04/09 04:17:42;;;;;;;27.50;15.10;;;;;;;6.29;89.01;96055.66;105759;1276;137864;-71
2022/04/09 04:20:11;;;;;;;32.60;18.40;;;;;;;6.34;88.83;96056.73;106128;1276;23162;-71
2022/04/09 04:22:40;;;;;;;32.10;17.70;;;;;;;6.32;88.57;96057.92;105951;1276;137732;-71
2022/04/09 04:25:07;;;;;;;38.40;21.00;;;;;;;6.31;88.71;96049.11;105971;1276;23913;-71
2022/04/09 04:27:34;;;;;;;36.40;19.90;;;;;;;6.29;88.91;96027.29;106018;1276;25270;-71
2022/04/09 04:30:16;;;;;;;34.90;17.90;;;;;;;6.33;89.28;96033.11;105885;1277;138466;-71
2022/04/09 04:32:44;;;;;;;34.00;18.10;;;;;;;6.36;89.08;96041.63;106013;1277;23973;-73
2022/04/09 04:35:26;;;;;;;35.90;17.60;;;;;;;6.35;89.08;96041.14;105844;1277;137680;-73
2022/04/09 04:37:54;;;;;;;32.20;18.70;;;;;;;6.34;89.28;96038.02;105882;1277;25265;-71
2022/04/09 04:40:23;;;;;;;35.30;19.60;;;;;;;6.33;89.41;96037.16;105986;1276;138112;-71
2022/04/09 04:42:54;;;;;;;39.00;20.20;;;;;;;6.36;89.53;96037.41;105940;1276;22585;-71
2022/04/09 04:45:22;;;;;;;39.10;19.70;;;;;;;6.39;89.61;96031.13;105928;1277;25395;-71
2022/04/09 04:47:51;;;;;;;33.70;17.80;;;;;;;6.42;89.73;96035.00;106094;1276;137778;-71
2022/04/09 04:50:21;;;;;;;38.30;19.40;;;;;;;6.43;89.47;96033.38;105931;1277;23781;-71
2022/04/09 04:52:48;;;;;;;41.50;21.70;;;;;;;6.43;89.60;96037.80;105688;1277;137994;-71
2022/04/09 04:55:16;;;;;;;34.60;18.00;;;;;;;6.45;89.61;96043.91;106024;1277;25365;-71
2022/04/09 04:57:50;;;;;;;;;;;;;;;6.48;89.83;96053.48;106083;1276;24321;-71
2022/04/09 05:00:23;;;;;;;28.50;14.00;;;;;;;6.51;89.71;96065.14;105903;1276;124326;-71
2022/04/09 05:02:51;;;;;;;24.10;12.70;;;;;;;6.47;89.49;96086.67;105924;1276;22560;-71
2022/04/09 05:05:20;;;;;;;23.80;13.20;;;;;;;6.34;89.62;96104.02;105938;1276;137872;-71
2022/04/09 05:07:49;;;;;;;18.20;10.60;;;;;;;6.21;89.95;96116.39;106153;1276;22627;-71
2022/04/09 05:10:33;;;;;;;20.30;11.10;;;;;;;6.08;90.70;96115.82;105880;1277;138454;-71
2022/04/09 05:13:00;;;;;;;14.40;9.00;;;;;;;5.99;91.18;96120.54;105909;1277;24325;-71
2022/04/09 05:15:28;;;;;;;14.20;8.50;;;;;;;5.90;91.50;96116.92;105960;1277;22717;-71
2022/04/09 05:17:55;;;;;;;13.20;7.90;;;;;;;5.82;91.80;96109.31;105919;1277;138661;-71
2022/04/09 05:20:22;;;;;;;10.60;6.20;;;;;;;5.76;91.76;96103.70;105818;1277;22563;-72
2022/04/09 05:22:49;;;;;;;8.50;5.10;;;;;;;5.70;91.73;96116.69;105982;1277;138601;-72
2022/04/09 05:25:19;;;;;;;7.80;6.00;;;;;;;5.66;91.70;96118.52;106183;1277;25416;-72
2022/04/09 05:27:49;;;;;;;6.80;5.30;;;;;;;5.66;91.60;96111.92;105924;1277;25393;-72
2022/04/09 05:30:24;;;;;;;6.10;4.80;;;;;;;5.66;91.63;96101.89;106009;1277;137466;-72
2022/04/09 05:32:52;;;;;;;5.20;3.90;;;;;;;5.67;91.55;96102.96;106015;1277;24577;-72
2022/04/09 05:35:18;;;;;;;4.80;4.30;;;;;;;5.65;91.43;96096.21;105980;1277;137376;-72
2022/04/09 05:37:50;;;;;;;6.20;4.00;;;;;;;5.67;91.57;96099.34;106001;1277;22563;-72
2022/04/09 05:40:19;;;;;;;4.30;3.90;;;;;;;5.70;91.47;96098.48;105905;1277;138113;-72
2022/04/09 05:42:46;;;;;;;5.30;3.50;;;;;;;5.72;91.55;96102.03;105860;1277;25473;-72
2022/04/09 05:45:28;;;;;;;3.10;2.80;;;;;;;5.76;91.22;96115.98;105952;1277;22567;-70
2022/04/09 05:47:55;;;;;;;3.90;3.40;;;;;;;5.75;91.20;96121.84;105866;1277;138082;-71
2022/04/09 05:50:26;;;;;;;4.50;3.70;;;;;;;5.75;91.24;96134.23;106071;1276;22669;-71
2022/04/09 05:52:54;;;;;;;4.70;4.20;;;;;;;5.73;91.17;96144.98;105855;1276;137956;-71
2022/04/09 05:55:21;;;;;;;5.60;4.00;;;;;;;5.73;91.30;96146.77;105968;1276;25372;-71
2022/04/09 05:58:02;;;;;;;4.90;3.90;;;;;;;5.72;91.33;96153.52;105882;1276;138101;-71
2022/04/09 06:00:31;;;;;;;4.20;3.80;;;;;;;5.73;91.58;96152.27;106009;1276;23172;-71
2022/04/09 06:03:22;;;;;;;3.10;2.80;;;;;;;5.74;91.53;96142.16;105949;1277;25508;-71
2022/04/09 06:05:50;;;;;;;4.90;3.60;;;;;;;5.73;91.69;96144.86;105985;1277;138109;-71
2022/04/09 06:08:22;;;;;;;3.80;3.50;;;;;;;5.72;91.79;96169.55;106010;1277;25379;-71
2022/04/09 06:10:49;;;;;;;4.00;3.60;;;;;;;5.69;91.97;96214.58;105901;1276;137886;-71
2022/04/09 06:13:16;;;;;;;4.30;3.80;;;;;;;5.65;92.22;96240.94;105951;1276;22563;-71
2022/04/09 06:15:57;;;;;;;4.90;3.70;;;;;;;5.60;92.23;96248.76;105904;1276;24211;-71
2022/04/09 06:18:25;;;;;;;2.50;2.20;;;;;;;5.54;92.04;96267.53;106032;1276;137569;-71
2022/04/09 06:20:52;;;;;;;2.50;2.30;;;;;;;5.48;92.17;96277.52;105878;1277;24447;-71
2022/04/09 06:23:33;;;;;;;2.90;2.20;;;;;;;5.41;92.02;96291.59;105904;1277;137900;-71
2022/04/09 06:26:01;;;;;;;3.40;2.30;;;;;;;5.33;91.34;96292.53;105987;1277;24242;-71
2022/04/09 06:28:45;;;;;;;3.50;2.50;;;;;;;5.28;91.03;96299.95;105831;1277;138676;-71
2022/04/09 06:31:11;;;;;;;2.40;2.20;;;;;;;5.26;90.19;96313.66;106011;1277;22611;-71
2022/04/09 06:33:38;;;;;;;3.10;1.80;;;;;;;5.22;88.71;96322.39;105943;1277;22609;-71
2022/04/09 06:36:08;;;;;;;1.40;1.30;;;;;;;5.15;87.58;96326.67;105976;1277;137770;-71
2022/04/09 06:38:35;;;;;;;1.30;1.20;;;;;;;5.00;87.08;96340.47;105972;1277;25386;-71
2022/04/09 06:41:04;;;;;;;1.50;1.20;;;;;;;4.87;86.24;96349.61;105929;1277;138283;-72
2022/04/09 06:43:55;;;;;;;1.40;0.90;;;;;;;4.76;86.50;96368.20;106423;1277;26580;-72
2022/04/09 06:46:32;;;;;;;1.50;0.80;;;;;;;4.60;85.82;96378.87;105894;1277;138038;-72
2022/04/09 06:49:18;;;;;;;1.00;0.60;;;;;;;4.44;85.24;96391.69;105934;1277;22573;-72
2022/04/09 06:51:59;;;;;;;0.30;0.30;;;;;;;4.20;85.06;96408.77;106106;1276;24081;-72
2022/04/09 06:54:33;;;;;;;0.80;0.60;;;;;;;4.05;85.55;96430.28;105599;1277;137900;-72
2022/04/09 06:56:59;;;;;;;1.10;0.60;;;;;;;3.92;86.04;96442.86;105875;1277;22675;-72
2022/04/09 06:59:29;;;;;;;1.10;0.60;;;;;;;3.84;86.41;96443.45;105826;1277;138095;-72
2022/04/09 07:01:56;;;;;;;1.40;0.60;;;;;;;3.81;87.32;96455.33;105873;1276;22577;-72
2022/04/09 07:04:22;;;;;;;3.10;1.30;;;;;;;3.83;87.75;96465.67;105770;1277;138008;-72
2022/04/09 07:06:49;;;;;;;3.20;1.10;;;;;;;3.88;88.03;96479.05;105916;1277;24243;-70
2022/04/09 07:09:29;;;;;;;2.30;1.00;;;;;;;3.92;87.83;96509.15;105919;1278;22561;-72
2022/04/09 07:11:56;;;;;;;1.50;1.00;;;;;;;3.96;87.64;96527.44;106279;1277;137477;-72
2022/04/09 07:14:23;;;;;;;1.70;1.00;;;;;;;3.99;87.69;96549.79;105886;1277;25280;-71
2022/04/09 07:16:52;;;;;;;;;;;;;;;3.98;86.98;96560.44;106018;1277;137833;-71
2022/04/09 07:19:18;;;;;;;2.90;1.80;;;;;;;3.93;86.83;96572.77;106017;1277;24413;-71
2022/04/09 07:21:45;;;;;;;1.50;1.00;;;;;;;3.91;87.02;96572.70;106144;1277;24663;-71
2022/04/09 07:24:12;;;;;;;1.00;0.80;;;;;;;3.93;86.87;96580.25;106020;1277;137778;-71
2022/04/09 07:26:39;;;;;;;1.20;1.00;;;;;;;3.99;87.55;96597.09;106108;1277;22611;-71
2022/04/09 07:29:05;;;;;;;2.10;1.10;;;;;;;4.06;87.64;96612.26;105872;1277;138208;-73
2022/04/09 07:31:47;;;;;;;0.90;0.90;;;;;;;4.06;86.19;96630.80;106068;1277;25335;-71
2022/04/09 07:34:15;;;;;;;0.80;0.80;;;;;;;4.02;86.27;96643.34;106125;1277;137867;-71
2022/04/09 07:36:41;;;;;;;1.20;1.00;;;;;;;4.03;86.40;96649.48;106127;1276;22661;-71
2022/04/09 07:39:09;;;;;;;2.00;0.70;;;;;;;4.04;86.41;96647.23;106034;1276;25619;-73
2022/04/09 07:41:35;;;;;;;1.30;0.80;;;;;;;4.09;86.34;96654.74;106297;1276;138279;-72
2022/04/09 07:44:02;;;;;;;0.80;0.60;;;;;;;4.14;86.53;96662.85;105785;1277;336669;-72
2022/04/09 07:46:29;;;;;;;1.40;1.00;;;;;;;4.15;85.76;96677.78;106102;1277;138534;-73
2022/04/09 07:48:56;;;;;;;1.30;1.20;;;;;;;4.15;85.84;96698.13;106143;1277;25405;-72
2022/04/09 07:51:23;;;;;;;1.60;0.90;;;;;;;4.11;85.68;96726.10;105799;1277;22668;-73
2022/04/09 07:53:50;;;;;;;1.40;1.20;;;;;;;4.04;85.47;96743.44;105824;1276;137903;-72
2022/04/09 07:56:16;;;;;;;2.40;1.40;;;;;;;4.02;86.37;96750.65;106057;1276;24207;-72
2022/04/09 07:58:43;;;;;;;2.70;1.60;;;;;;;4.01;86.04;96760.48;105873;1276;137447;-72
2022/04/09 08:01:10;;;;;;;3.00;1.90;;;;;;;3.98;86.07;96774.76;106023;1276;25407;-72
2022/04/09 08:03:37;;;;;;;2.20;1.90;;;;;;;3.95;85.90;96778.09;105762;1277;24534;-72
2022/04/09 08:06:07;;;;;;;3.60;2.70;;;;;;;3.90;85.40;96789.43;105724;1277;137662;-71
2022/04/09 08:08:33;;;;;;;2.90;2.60;;;;;;;3.85;84.99;96800.92;105927;1277;24235;-71
2022/04/09 08:11:01;;;;;;;4.40;3.10;;;;;;;3.84;84.74;96805.97;105724;1277;137950;-71
2022/04/09 08:13:27;;;;;;;5.10;3.00;;;;;;;3.82;84.69;96815.52;105878;1277;25282;-71
2022/04/09 08:15:53;;;;;;;4.80;3.10;;;;;;;3.80;85.55;96828.37;105910;1277;25390;-71
2022/04/09 08:18:20;;;;;;;3.10;2.80;;;;;;;3.79;85.17;96845.96;105619;1277;137891;-71
2022/04/09 08:20:46;;;;;;;3.60;3.30;;;;;;;3.81;85.05;96858.27;105647;1277;26551;-71
2022/04/09 08:23:13;;;;;;;3.20;2.80;;;;;;;3.81;84.61;96870.55;105783;1277;138145;-71
2022/04/09 08:25:56;;;;;;;3.60;2.90;;;;;;;3.77;83.95;96879.19;105918;1277;22591;-71
2022/04/09 08:28:24;;;;;;;3.50;3.20;;;;;;;3.73;84.24;96881.48;105713;1277;138008;-71
2022/04/09 08:30:52;;;;;;;3.30;2.60;;;;;;;3.72;85.04;96888.62;106022;1277;22577;-71
2022/04/09 08:33:19;;;;;;;3.70;3.20;;;;;;;3.70;84.51;96894.09;105895;1277;24293;-71
2022/04/09 08:35:46;;;;;;;4.20;3.10;;;;;;;3.66;84.01;96910.00;106040;1276;137347;-71
2022/04/09 08:38:13;;;;;;;3.30;2.60;;;;;;;3.62;84.39;96919.39;105975;1277;22545;-71
2022/04/09 08:40:41;;;;;;;5.10;2.50;;;;;;;3.62;84.58;96924.02;105833;1277;137856;-72
2022/04/09 08:43:08;;;;;;;3.00;2.70;;;;;;;3.64;84.12;96928.64;106044;1276;22628;-71
2022/04/09 08:45:36;;;;;;;3.50;3.00;;;;;;;3.67;84.07;96925.04;105998;1277;22576;-71
2022/04/09 08:48:06;;;;;;;3.00;2.70;;;;;;;3.72;83.84;96926.52;105948;1277;137046;-71
2022/04/09 08:50:35;;;;;;;3.00;2.10;;;;;;;3.73;83.36;96925.80;105996;1277;23102;-72
2022/04/09 08:53:16;;;;;;;3.30;2.20;;;;;;;3.76;83.59;96936.09;106627;1277;137987;-72
2022/04/09 08:55:45;;;;;;;2.80;2.50;;;;;;;3.78;83.14;96950.66;106166;1277;22540;-72
2022/04/09 08:58:26;;;;;;;4.90;2.80;;;;;;;3.78;83.19;96967.89;106133;1277;137497;-71
2022/04/09 09:00:53;;;;;;;4.60;2.40;;;;;;;3.77;83.01;96981.14;106080;1277;22561;-71
2022/04/09 09:03:20;;;;;;;1.40;1.30;;;;;;;3.79;83.23;96983.16;106258;1277;25340;-71
2022/04/09 09:05:52;;;;;;;2.00;1.40;;;;;;;3.81;82.35;96986.48;105994;1277;137446;-71
2022/04/09 09:08:36;;;;;;;2.20;2.00;;;;;;;3.81;82.39;96976.69;106207;1276;22557;-70
2022/04/09 09:11:19;;;;;;;1.70;1.60;;;;;;;3.88;82.32;96973.81;105819;1277;137023;-70
2022/04/09 09:13:51;;;;;;;2.80;1.80;;;;;;;3.93;82.18;96976.39;105939;1277;25608;-71
2022/04/09 09:16:30;;;;;;;2.20;1.90;;;;;;;3.95;81.81;96991.04;105883;1277;137466;-70
2022/04/09 09:18:59;;;;;;;3.70;2.30;;;;;;;3.96;81.83;96996.65;106067;1277;25391;-71
2022/04/09 09:21:27;;;;;;;4.00;2.30;;;;;;;3.99;82.41;97011.96;106125;1277;24299;-70
2022/04/09 09:24:23;;;;;;;3.10;2.30;;;;;;;4.04;82.30;97028.31;105931;1277;137352;-73
2022/04/09 09:26:59;;;;;;;5.00;2.20;;;;;;;4.11;82.91;97039.70;105950;1277;22573;-71
2022/04/09 09:29:42;;;;;;;2.30;1.90;;;;;;;4.18;82.67;97047.14;105836;1277;137679;-70
2022/04/09 09:32:25;;;;;;;3.00;2.60;;;;;;;4.24;82.70;97064.39;105920;1277;22571;-71
2022/04/09 09:34:54;;;;;;;3.80;2.90;;;;;;;4.26;82.09;97079.23;105810;1276;137231;-71
2022/04/09 09:37:35;;;;;;;2.80;2.50;;;;;;;4.25;81.96;97080.21;105865;1276;25475;-71
2022/04/09 09:40:31;;;;;;;5.40;3.10;;;;;;;4.32;81.76;97084.66;106006;1276;137947;-71
2022/04/09 09:43:27;;;;;;;5.40;3.20;;;;;;;4.37;81.90;97089.49;106027;1275;25336;-71
2022/04/09 09:45:55;;;;;;;6.40;4.20;;;;;;;4.43;81.46;97092.89;105894;1277;25430;-71
2022/04/09 09:48:24;;;;;;;7.90;4.70;;;;;;;4.47;81.84;97092.77;106765;1277;137410;-71
2022/04/09 09:50:53;;;;;;;7.00;5.20;;;;;;;4.52;81.39;97100.21;106005;1277;22839;-71
2022/04/09 09:53:31;;;;;;;8.40;4.60;;;;;;;4.60;81.44;97104.65;105824;1277;138096;-71
2022/04/09 09:56:00;;;;;;;6.30;4.10;;;;;;;4.71;81.58;97106.11;105944;1277;24275;-71
2022/04/09 09:58:41;;;;;;;7.50;4.20;;;;;;;4.82;81.83;97107.55;105841;1277;137430;-73
2022/04/09 10:01:09;;;;;;;8.40;5.90;;;;;;;4.92;81.57;97110.44;106050;1277;22549;-72
2022/04/09 10:03:37;;;;;;;8.60;5.70;;;;;;;5.02;81.19;97116.06;106003;1277;24534;-72
2022/04/09 10:06:05;;;;;;;11.80;6.70;;;;;;;5.07;80.73;97120.69;105931;1277;137280;-72
2022/04/09 10:08:32;;;;;;;9.90;5.60;;;;;;;5.15;80.87;97115.31;106023;1277;22572;-72
2022/04/09 10:11:02;;;;;;;7.60;5.40;;;;;;;5.23;80.70;97119.61;105749;1277;137831;-72
2022/04/09 10:13:32;;;;;;;7.80;5.40;;;;;;;5.28;80.26;97130.88;106145;1277;25336;-73
2022/04/09 10:16:20;;;;;;;8.70;5.50;;;;;;;5.32;80.28;97139.27;106174;1277;137988;-72
2022/04/09 10:18:49;;;;;;;10.30;5.80;;;;;;;5.38;80.29;97142.82;105952;1277;24296;-72
2022/04/09 10:21:17;;;;;;;7.90;6.10;;;;;;;5.48;79.98;97148.91;106034;1277;22529;-72
2022/04/09 10:23:46;;;;;;;7.40;5.20;;;;;;;5.58;79.58;97145.85;105776;1277;137990;-71
2022/04/09 10:26:13;;;;;;;6.40;4.10;;;;;;;5.68;78.62;97142.66;105916;1276;24237;-72
2022/04/09 10:28:40;;;;;;;7.10;5.00;;;;;;;5.73;77.96;97147.17;105910;1276;137327;-72
2022/04/09 10:31:23;;;;;;;7.90;5.90;;;;;;;5.73;78.55;97147.96;105999;1276;22709;-72
2022/04/09 10:33:57;;;;;;;13.70;9.80;;;;;;;5.69;78.54;97155.16;105984;1276;24283;-72
2022/04/09 10:36:40;;;;;;;10.80;6.90;;;;;;;5.62;78.33;97166.77;105937;1276;139621;-72
2022/04/09 10:39:40;;;;;;;13.40;7.60;;;;;;;5.56;78.32;97178.26;106100;1277;23406;-72
2022/04/09 10:42:50;;;;;;;12.70;6.90;;;;;;;5.53;78.62;97180.55;106138;1277;137690;-71
2022/04/09 10:45:17;;;;;;;10.40;7.80;;;;;;;5.51;78.93;97182.36;106152;1277;22243;-72
2022/04/09 10:48:11;;;;;;;13.20;8.50;;;;;;;5.51;78.84;97184.88;105938;1276;138429;-72
2022/04/09 10:50:53;;;;;;;18.60;9.20;;;;;;;5.51;78.90;97184.77;106160;1276;22724;-71
2022/04/09 10:53:24;;;;;;;11.00;8.10;;;;;;;5.55;79.07;97190.88;106007;1276;138682;-72
2022/04/09 10:56:14;;;;;;;12.00;7.90;;;;;;;5.62;78.95;97191.54;106038;1276;25330;-71
2022/04/09 10:58:58;;;;;;;8.10;7.30;;;;;;;5.70;79.05;97194.23;106036;1277;137941;-70
2022/04/09 11:01:51;;;;;;;11.70;7.90;;;;;;;5.75;78.07;97200.77;105866;1277;22588;-73
2022/04/09 11:04:34;;;;;;;14.40;9.40;;;;;;;5.77;78.25;97204.23;105765;1278;138175;-71
2022/04/09 11:07:24;;;;;;;15.40;9.90;;;;;;;5.82;78.66;97199.48;105949;1277;22711;-72
2022/04/09 11:10:06;;;;;;;12.90;9.90;;;;;;;5.88;78.66;97194.77;105942;1277;23021;-71
2022/04/09 11:12:38;;;;;;;13.70;10.10;;;;;;;5.94;78.23;97182.94;105918;1277;137756;-71
2022/04/09 11:15:11;;;;;;;11.40;8.80;;;;;;;6.01;78.00;97178.42;106012;1277;22726;-71
2022/04/09 11:17:47;;;;;;;11.90;7.70;;;;;;;6.08;77.38;97187.11;105801;1276;137793;-71
2022/04/09 11:20:33;;;;;;;15.70;10.00;;;;;;;6.12;76.93;97199.61;106019;1277;22566;-71
2022/04/09 11:23:15;;;;;;;14.70;10.00;;;;;;;6.12;76.20;97214.48;105767;1277;137742;-71
2022/04/09 11:25:43;;;;;;;11.50;8.90;;;;;;;6.10;76.50;97225.36;105881;1276;22570;-71
2022/04/09 11:28:19;;;;;;;17.80;10.30;;;;;;;6.10;77.04;97229.62;105979;1277;24412;-71
2022/04/09 11:31:03;;;;;;;14.90;10.10;;;;;;;6.15;77.32;97227.60;105882;1277;137920;-71
2022/04/09 11:33:31;;;;;;;15.60;10.00;;;;;;;6.18;77.10;97228.73;106089;1277;23033;-71
2022/04/09 11:36:00;;;;;;;13.30;8.50;;;;;;;6.18;76.33;97230.30;106078;1277;138974;-71
2022/04/09 11:38:41;;;;;;;12.30;8.30;;;;;;;6.15;76.03;97241.45;105960;1277;25536;-71
2022/04/09 11:41:19;;;;;;;17.40;11.20;;;;;;;6.13;75.86;97252.23;105836;1276;138400;-71
2022/04/09 11:43:50;;;;;;;11.90;9.40;;;;;;;6.11;75.91;97261.16;106002;1276;22542;-71
2022/04/09 11:46:17;;;;;;;15.20;9.60;;;;;;;6.09;75.51;97260.54;105916;1276;24134;-72